»·PEaware :: QXE311 KFOT-KSTS

QXE311 :: KFOT-KSTS

FLIGHT INFORMATION

Flight Status: Arrived
Operator:
Horizon Air
More flights by this operator :: More flights under this callsign
Pilot: Dheeraj L. (18560)
Aircraft: DEHAVILLAND DASH 8 400
(DH8D)
More flights by this aircraft type
Origin: KFOT Rohnerville
United States
Destination: KSTS Sonoma Co
United States
More flights between these airports :: More routes between these airports
Route: FOT V27 ENI
File this flight plan on PilotEdge
Remarks:
Altitude:
(Current/Filed)
17,000ft
Speed:
(Current/Filed)
280kts
Departed: 08-Jul-18 01:00 PM
Arrived: 08-Jul-18 01:42 PM
Distance/Time
Traveled:
137nm/0:42
Distance/Time
To Go:
Arrived

Flight Plot

Page will automatically refresh every two minutes.

Flight plan parsing failed; only flown route is shown


Map Options




Map Legend


Flown Route
Filed Route
Departure Airport
Arrival Airport
Navaid (VOR, NDB)
Fix

Horizontal Profiles

Position Reports

Time Latitude Longitude Heading Altitude Ground
Speed
08-Jul-18 12:32 40.551204 -124.126409 218 362ft 0kts
08-Jul-18 12:33 40.551204 -124.126409 218 362ft 0kts
08-Jul-18 12:34 40.551204 -124.126409 218 362ft 0kts
08-Jul-18 12:35 40.551204 -124.126409 218 362ft 0kts
08-Jul-18 12:36 40.551204 -124.126409 218 362ft 0kts
08-Jul-18 12:37 40.551204 -124.126409 218 362ft 0kts
08-Jul-18 12:38 40.551204 -124.126409 218 362ft 0kts
08-Jul-18 12:39 40.551204 -124.126409 218 362ft 0kts
08-Jul-18 12:40 40.551204 -124.126409 218 362ft 0kts
08-Jul-18 12:41 40.551204 -124.126409 218 362ft 0kts
08-Jul-18 12:42 40.551204 -124.126409 218 362ft 0kts
08-Jul-18 12:43 40.551204 -124.126409 218 362ft 0kts
08-Jul-18 12:44 40.551204 -124.126409 218 362ft 0kts
08-Jul-18 12:44 40.551204 -124.126409 218 362ft 0kts
08-Jul-18 12:45 40.551204 -124.126409 218 362ft 0kts
08-Jul-18 12:46 40.551204 -124.126409 218 362ft 0kts
08-Jul-18 12:47 40.551204 -124.126409 218 362ft 0kts
08-Jul-18 12:48 40.551204 -124.126409 218 362ft 0kts
08-Jul-18 12:49 40.551204 -124.126409 218 362ft 0kts
08-Jul-18 12:50 40.551204 -124.126409 218 362ft 0kts
08-Jul-18 12:51 40.551204 -124.126409 218 362ft 0kts
08-Jul-18 12:53 40.551204 -124.126409 218 362ft 0kts
08-Jul-18 12:54 40.551204 -124.126409 218 362ft 0kts
08-Jul-18 12:55 40.551204 -124.126409 218 362ft 0kts
08-Jul-18 12:56 40.551204 -124.126409 218 362ft 0kts
08-Jul-18 12:57 40.551204 -124.126409 218 362ft 0kts
08-Jul-18 12:58 40.551204 -124.126409 218 362ft 0kts
08-Jul-18 12:59 40.551216 -124.126397 218 362ft 0kts
08-Jul-18 13:00 40.551280 -124.128072 307 362ft 36kts
08-Jul-18 13:01 40.568358 -124.158479 309 2024ft 113kts
08-Jul-18 13:02 40.593295 -124.189308 321 4531ft 115kts
08-Jul-18 13:03 40.625839 -124.216683 327 6383ft 161kts
08-Jul-18 13:04 40.673980 -124.231977 12 8478ft 196kts
08-Jul-18 13:05 40.679555 -124.164106 146 9674ft 252kts
08-Jul-18 13:06 40.609633 -124.174301 190 10436ft 282kts
08-Jul-18 13:07 40.529426 -124.148463 161 11115ft 299kts
08-Jul-18 13:08 40.455199 -124.103252 159 12242ft 295kts
08-Jul-18 13:09 40.381460 -124.058594 160 13058ft 297kts
08-Jul-18 13:10 40.305509 -124.012987 160 13793ft 300kts
08-Jul-18 13:11 40.229134 -123.967165 161 14441ft 303kts
08-Jul-18 13:12 40.152253 -123.921177 161 15016ft 305kts
08-Jul-18 13:13 40.074621 -123.874624 161 15727ft 301kts
08-Jul-18 13:14 39.999434 -123.829647 161 16546ft 297kts
08-Jul-18 13:15 39.922500 -123.783966 161 16920ft 307kts
08-Jul-18 13:16 39.842925 -123.736899 161 16927ft 318kts
08-Jul-18 13:17 39.761280 -123.688464 161 16915ft 324kts
08-Jul-18 13:18 39.679996 -123.640423 162 16903ft 326kts
08-Jul-18 13:19 39.599244 -123.592766 162 16891ft 327kts
08-Jul-18 13:20 39.516487 -123.544191 162 16880ft 327kts
08-Jul-18 13:21 39.434390 -123.496212 162 15902ft 321kts
08-Jul-18 13:22 39.358621 -123.451372 162 14501ft 276kts
08-Jul-18 13:23 39.294409 -123.413792 163 12970ft 231kts
08-Jul-18 13:24 39.237265 -123.380973 164 12691ft 225kts
08-Jul-18 13:25 39.183101 -123.353978 162 10945ft 213kts
08-Jul-18 13:26 39.131645 -123.321035 159 9162ft 203kts
08-Jul-18 13:27 39.081515 -123.291207 159 7359ft 202kts
08-Jul-18 13:28 39.031789 -123.258182 152 6186ft 181kts
08-Jul-18 13:29 38.988217 -123.223742 151 5610ft 185kts
08-Jul-18 13:30 38.947874 -123.190118 148 5619ft 164kts
08-Jul-18 13:31 38.908566 -123.153858 146 5811ft 175kts
08-Jul-18 13:32 38.866176 -123.117894 149 5774ft 186kts
08-Jul-18 13:33 38.821531 -123.081682 155 5626ft 190kts
08-Jul-18 13:34 38.784130 -123.037097 113 5336ft 184kts
08-Jul-18 13:35 38.770469 -122.975479 114 5056ft 179kts
08-Jul-18 13:36 38.729003 -122.953698 194 4328ft 180kts
08-Jul-18 13:37 38.681055 -122.944330 159 3288ft 176kts
08-Jul-18 13:38 38.633877 -122.928418 153 2792ft 177kts
08-Jul-18 13:39 38.598740 -122.892593 134 1886ft 139kts
08-Jul-18 13:40 38.571600 -122.862557 137 1360ft 126kts
08-Jul-18 13:41 38.544211 -122.834122 131 776ft 123kts
08-Jul-18 13:42 38.514885 -122.812493 150 149ft 121kts
08-Jul-18 13:43 38.504401 -122.806767 156 133ft 2kts
08-Jul-18 13:44 38.502613 -122.805355 96 133ft 6kts
08-Jul-18 13:45 38.503383 -122.804677 338 132ft 0kts
08-Jul-18 13:46 38.504295 -122.805149 337 133ft 10kts
08-Jul-18 13:47 38.507144 -122.806225 358 133ft 4kts
08-Jul-18 13:48 38.509128 -122.806951 336 133ft 4kts
08-Jul-18 13:49 38.509731 -122.806635 65 133ft 1kts
08-Jul-18 13:50 38.509867 -122.806226 67 132ft 0kts
08-Jul-18 13:51 38.509867 -122.806226 67 132ft 0kts
08-Jul-18 13:52 38.509867 -122.806226 67 132ft 0kts
08-Jul-18 13:53 38.509867 -122.806226 67 132ft 0kts
08-Jul-18 13:54 38.509867 -122.806226 67 132ft 0kts
08-Jul-18 13:55 38.509867 -122.806226 67 132ft 0kts
08-Jul-18 13:56 38.509867 -122.806226 67 132ft 0kts
08-Jul-18 13:57 38.509867 -122.806226 67 132ft 0kts
08-Jul-18 13:58 38.509867 -122.806226 67 132ft 0kts

Navigation Log

Ident Type
Flight plan parsing failed, navigation log unavailable